sensor_id;sensor_type;location;lat;lon;timestamp;pressure;altitude;pressure_sealevel;temperature;humidity
4123;BME280;2075;51.062;6.920;2023-08-20T00:02:47;-11667.00;;;-144.48;100.00
4123;BME280;2075;51.062;6.920;2023-08-20T00:05:40;-11667.00;;;-144.48;100.00
4123;BME280;2075;51.062;6.920;2023-08-20T00:08:27;-11667.00;;;-144.48;100.00
4123;BME280;2075;51.062;6.920;2023-08-20T00:11:13;-11667.00;;;-144.48;100.00
4123;BME280;2075;51.062;6.920;2023-08-20T00:14:01;-11667.00;;;-144.48;100.00
4123;BME280;2075;51.062;6.920;2023-08-20T00:16:52;-11667.00;;;-144.48;100.00
4123;BME280;2075;51.062;6.920;2023-08-20T00:19:41;-11667.00;;;-144.48;100.00
4123;BME280;2075;51.062;6.920;2023-08-20T00:22:28;-11667.00;;;-144.48;100.00
4123;BME280;2075;51.062;6.920;2023-08-20T00:25:16;-11667.00;;;-144.48;100.00
4123;BME280;2075;51.062;6.920;2023-08-20T00:28:05;-11667.00;;;-144.48;100.00
4123;BME280;2075;51.062;6.920;2023-08-20T00:30:54;-11667.00;;;-144.48;100.00
4123;BME280;2075;51.062;6.920;2023-08-20T00:33:42;-11667.00;;;-144.48;100.00
4123;BME280;2075;51.062;6.920;2023-08-20T00:36:32;-11667.00;;;-144.48;100.00
4123;BME280;2075;51.062;6.920;2023-08-20T00:39:18;-11667.00;;;-144.48;100.00
4123;BME280;2075;51.062;6.920;2023-08-20T00:42:08;-11667.00;;;-144.48;100.00
4123;BME280;2075;51.062;6.920;2023-08-20T00:44:54;-11667.00;;;-144.48;100.00
4123;BME280;2075;51.062;6.920;2023-08-20T00:47:40;-11667.00;;;-144.48;100.00
4123;BME280;2075;51.062;6.920;2023-08-20T00:50:26;-11667.00;;;-144.48;100.00
4123;BME280;2075;51.062;6.920;2023-08-20T00:53:14;-11667.00;;;-144.48;100.00
4123;BME280;2075;51.062;6.920;2023-08-20T00:55:59;-11667.00;;;-144.48;100.00
4123;BME280;2075;51.062;6.920;2023-08-20T00:58:45;-11667.00;;;-144.48;100.00
4123;BME280;2075;51.062;6.920;2023-08-20T01:01:31;-11667.00;;;-144.48;100.00
4123;BME280;2075;51.062;6.920;2023-08-20T01:04:18;-11667.00;;;-144.48;100.00
4123;BME280;2075;51.062;6.920;2023-08-20T01:07:12;-11667.00;;;-144.48;100.00
4123;BME280;2075;51.062;6.920;2023-08-20T01:10:06;-11667.00;;;-144.48;100.00
4123;BME280;2075;51.062;6.920;2023-08-20T01:12:53;-11667.00;;;-144.48;100.00
4123;BME280;2075;51.062;6.920;2023-08-20T01:15:39;-11667.00;;;-144.48;100.00
4123;BME280;2075;51.062;6.920;2023-08-20T01:18:25;-11667.00;;;-144.48;100.00
4123;BME280;2075;51.062;6.920;2023-08-20T01:21:24;-11667.00;;;-144.48;100.00
4123;BME280;2075;51.062;6.920;2023-08-20T01:24:29;-11667.00;;;-144.48;100.00
4123;BME280;2075;51.062;6.920;2023-08-20T01:27:31;-11667.00;;;-144.48;100.00
4123;BME280;2075;51.062;6.920;2023-08-20T01:30:23;-11667.00;;;-144.48;100.00
4123;BME280;2075;51.062;6.920;2023-08-20T01:33:11;-11667.00;;;-144.48;100.00
4123;BME280;2075;51.062;6.920;2023-08-20T01:35:57;-11667.00;;;-144.48;100.00
4123;BME280;2075;51.062;6.920;2023-08-20T01:38:43;-11667.00;;;-144.48;100.00
4123;BME280;2075;51.062;6.920;2023-08-20T01:41:28;-11667.00;;;-144.48;100.00
4123;BME280;2075;51.062;6.920;2023-08-20T01:44:13;-11667.00;;;-144.48;100.00
4123;BME280;2075;51.062;6.920;2023-08-20T01:47:00;-11667.00;;;-144.48;100.00
4123;BME280;2075;51.062;6.920;2023-08-20T01:49:47;-11667.00;;;-144.48;100.00
4123;BME280;2075;51.062;6.920;2023-08-20T01:52:32;-11667.00;;;-144.48;100.00
4123;BME280;2075;51.062;6.920;2023-08-20T01:55:18;-11667.00;;;-144.48;100.00
4123;BME280;2075;51.062;6.920;2023-08-20T01:58:03;-11667.00;;;-144.48;100.00
4123;BME280;2075;51.062;6.920;2023-08-20T02:00:49;-11667.00;;;-144.48;100.00
4123;BME280;2075;51.062;6.920;2023-08-20T02:03:36;-11667.00;;;-144.48;100.00
4123;BME280;2075;51.062;6.920;2023-08-20T02:06:22;-11667.00;;;-144.48;100.00
4123;BME280;2075;51.062;6.920;2023-08-20T02:09:07;-11667.00;;;-144.48;100.00
4123;BME280;2075;51.062;6.920;2023-08-20T02:11:53;-11667.00;;;-144.48;100.00
4123;BME280;2075;51.062;6.920;2023-08-20T02:14:38;-11667.00;;;-144.48;100.00
4123;BME280;2075;51.062;6.920;2023-08-20T02:17:23;-11667.00;;;-144.48;100.00
4123;BME280;2075;51.062;6.920;2023-08-20T02:20:10;-11667.00;;;-144.48;100.00
4123;BME280;2075;51.062;6.920;2023-08-20T02:22:56;-11667.00;;;-144.48;100.00
4123;BME280;2075;51.062;6.920;2023-08-20T02:25:43;-11667.00;;;-144.48;100.00
4123;BME280;2075;51.062;6.920;2023-08-20T02:28:28;-11667.00;;;-144.48;100.00
4123;BME280;2075;51.062;6.920;2023-08-20T02:31:14;-11667.00;;;-144.48;100.00
4123;BME280;2075;51.062;6.920;2023-08-20T02:33:59;-11667.00;;;-144.48;100.00
4123;BME280;2075;51.062;6.920;2023-08-20T02:36:46;-11667.00;;;-144.48;100.00
4123;BME280;2075;51.062;6.920;2023-08-20T02:39:32;-11667.00;;;-144.48;100.00
4123;BME280;2075;51.062;6.920;2023-08-20T02:42:17;-11667.00;;;-144.48;100.00
4123;BME280;2075;51.062;6.920;2023-08-20T02:45:04;-11667.00;;;-144.48;100.00
4123;BME280;2075;51.062;6.920;2023-08-20T02:47:49;-11667.00;;;-144.48;100.00
4123;BME280;2075;51.062;6.920;2023-08-20T02:50:36;-11667.00;;;-144.48;100.00
4123;BME280;2075;51.062;6.920;2023-08-20T02:53:23;-11667.00;;;-144.48;100.00
4123;BME280;2075;51.062;6.920;2023-08-20T02:56:09;-11667.00;;;-144.48;100.00
4123;BME280;2075;51.062;6.920;2023-08-20T02:58:54;-11667.00;;;-144.48;100.00
4123;BME280;2075;51.062;6.920;2023-08-20T03:01:39;-11667.00;;;-144.48;100.00
4123;BME280;2075;51.062;6.920;2023-08-20T03:04:25;-11667.00;;;-144.48;100.00
4123;BME280;2075;51.062;6.920;2023-08-20T03:07:10;-11667.00;;;-144.48;100.00
4123;BME280;2075;51.062;6.920;2023-08-20T03:09:57;-11667.00;;;-144.48;100.00
4123;BME280;2075;51.062;6.920;2023-08-20T03:12:42;-11667.00;;;-144.48;100.00
4123;BME280;2075;51.062;6.920;2023-08-20T03:15:29;-11667.00;;;-144.48;100.00
4123;BME280;2075;51.062;6.920;2023-08-20T03:18:14;-11667.00;;;-144.48;100.00
4123;BME280;2075;51.062;6.920;2023-08-20T03:21:00;-11667.00;;;-144.48;100.00
4123;BME280;2075;51.062;6.920;2023-08-20T03:23:45;-11667.00;;;-144.48;100.00
4123;BME280;2075;51.062;6.920;2023-08-20T03:26:32;-11667.00;;;-144.48;100.00
4123;BME280;2075;51.062;6.920;2023-08-20T03:29:17;-11667.00;;;-144.48;100.00
4123;BME280;2075;51.062;6.920;2023-08-20T03:32:03;-11667.00;;;-144.48;100.00
4123;BME280;2075;51.062;6.920;2023-08-20T03:34:49;-11667.00;;;-144.48;100.00
4123;BME280;2075;51.062;6.920;2023-08-20T03:37:36;-11667.00;;;-144.48;100.00
4123;BME280;2075;51.062;6.920;2023-08-20T03:40:21;-11667.00;;;-144.48;100.00
4123;BME280;2075;51.062;6.920;2023-08-20T03:43:08;-11667.00;;;-144.48;100.00
4123;BME280;2075;51.062;6.920;2023-08-20T03:45:54;-11667.00;;;-144.48;100.00
4123;BME280;2075;51.062;6.920;2023-08-20T03:48:39;-11667.00;;;-144.48;100.00
4123;BME280;2075;51.062;6.920;2023-08-20T03:51:25;-11667.00;;;-144.48;100.00
4123;BME280;2075;51.062;6.920;2023-08-20T03:54:10;-11667.00;;;-144.48;100.00
4123;BME280;2075;51.062;6.920;2023-08-20T03:56:56;-11667.00;;;-144.48;100.00
4123;BME280;2075;51.062;6.920;2023-08-20T03:59:43;-11667.00;;;-144.48;100.00
4123;BME280;2075;51.062;6.920;2023-08-20T04:02:31;-11667.00;;;-144.48;100.00
4123;BME280;2075;51.062;6.920;2023-08-20T04:05:16;-11667.00;;;-144.48;100.00
4123;BME280;2075;51.062;6.920;2023-08-20T04:08:02;-11667.00;;;-144.48;100.00
4123;BME280;2075;51.062;6.920;2023-08-20T04:10:47;-11667.00;;;-144.48;100.00
4123;BME280;2075;51.062;6.920;2023-08-20T04:13:33;-11667.00;;;-144.48;100.00
4123;BME280;2075;51.062;6.920;2023-08-20T04:16:19;-11667.00;;;-144.48;100.00
4123;BME280;2075;51.062;6.920;2023-08-20T04:19:05;-11667.00;;;-144.48;100.00
4123;BME280;2075;51.062;6.920;2023-08-20T04:21:51;-11667.00;;;-144.48;100.00
4123;BME280;2075;51.062;6.920;2023-08-20T04:24:36;-11667.00;;;-144.48;100.00
4123;BME280;2075;51.062;6.920;2023-08-20T04:27:22;-11667.00;;;-144.48;100.00
4123;BME280;2075;51.062;6.920;2023-08-20T04:30:08;-11667.00;;;-144.48;100.00
4123;BME280;2075;51.062;6.920;2023-08-20T04:32:55;-11667.00;;;-144.48;100.00
4123;BME280;2075;51.062;6.920;2023-08-20T04:35:40;-11667.00;;;-144.48;100.00
4123;BME280;2075;51.062;6.920;2023-08-20T04:38:26;-11667.00;;;-144.48;100.00
4123;BME280;2075;51.062;6.920;2023-08-20T04:41:12;-11667.00;;;-144.48;100.00
4123;BME280;2075;51.062;6.920;2023-08-20T04:43:57;-11667.00;;;-144.48;100.00
4123;BME280;2075;51.062;6.920;2023-08-20T04:46:44;-11667.00;;;-144.48;100.00
4123;BME280;2075;51.062;6.920;2023-08-20T04:49:31;-11667.00;;;-144.48;100.00
4123;BME280;2075;51.062;6.920;2023-08-20T04:52:18;-11667.00;;;-144.48;100.00
4123;BME280;2075;51.062;6.920;2023-08-20T04:55:07;-11667.00;;;-144.48;100.00
4123;BME280;2075;51.062;6.920;2023-08-20T04:57:53;-11667.00;;;-144.48;100.00
4123;BME280;2075;51.062;6.920;2023-08-20T05:00:39;-11667.00;;;-144.48;100.00
4123;BME280;2075;51.062;6.920;2023-08-20T05:03:29;-11667.00;;;-144.48;100.00
4123;BME280;2075;51.062;6.920;2023-08-20T05:06:16;-11667.00;;;-144.48;100.00
4123;BME280;2075;51.062;6.920;2023-08-20T05:09:02;-11413.53;;;-144.48;100.00
4123;BME280;2075;51.062;6.920;2023-08-20T05:11:48;-10153.28;;;-144.48;100.00
4123;BME280;2075;51.062;6.920;2023-08-20T05:14:33;-8892.53;;;-144.48;100.00
4123;BME280;2075;51.062;6.920;2023-08-20T05:17:19;-2834.19;;;-144.48;100.00
4123;BME280;2075;51.062;6.920;2023-08-20T05:20:06;4248.06;;;-144.48;100.00
4123;BME280;2075;51.062;6.920;2023-08-20T05:22:54;8809.03;;;-144.48;100.00
4123;BME280;2075;51.062;6.920;2023-08-20T05:25:39;24822.16;;;-144.48;100.00
4123;BME280;2075;51.062;6.920;2023-08-20T05:28:25;45524.19;;;-144.48;100.00
4123;BME280;2075;51.062;6.920;2023-08-20T05:31:11;54766.19;;;-144.48;100.00
4123;BME280;2075;51.062;6.920;2023-08-20T05:33:59;51682.72;;;-144.48;100.00
4123;BME280;2075;51.062;6.920;2023-08-20T05:36:45;46293.41;;;-144.48;100.00
4123;BME280;2075;51.062;6.920;2023-08-20T05:39:36;45011.50;;;-144.48;100.00
4123;BME280;2075;51.062;6.920;2023-08-20T05:42:22;38097.66;;;-144.48;100.00
4123;BME280;2075;51.062;6.920;2023-08-20T05:45:14;34007.25;;;-144.48;100.00
4123;BME280;2075;51.062;6.920;2023-08-20T05:48:01;34518.28;;;-144.48;100.00
4123;BME280;2075;51.062;6.920;2023-08-20T05:50:47;90285.88;;;-144.48;100.00
4123;BME280;2075;51.062;6.920;2023-08-20T05:53:33;91558.50;;;-144.48;82.08
4123;BME280;2075;51.062;6.920;2023-08-20T05:56:20;91158.59;;;-144.48;66.78
4123;BME280;2075;51.062;6.920;2023-08-20T05:59:05;91406.25;;;-144.48;68.07
4123;BME280;2075;51.062;6.920;2023-08-20T06:01:53;91115.97;;;-144.48;60.93
4123;BME280;2075;51.062;6.920;2023-08-20T06:04:38;90890.66;;;-144.48;56.83
4123;BME280;2075;51.062;6.920;2023-08-20T06:07:24;90452.28;;;-144.48;47.88
4123;BME280;2075;51.062;6.920;2023-08-20T06:10:10;90848.03;;;-144.48;49.72
4123;BME280;2075;51.062;6.920;2023-08-20T06:12:57;91339.25;;;-144.48;61.85
4123;BME280;2075;51.062;6.920;2023-08-20T06:15:43;90395.47;;;-144.48;47.15
4123;BME280;2075;51.062;6.920;2023-08-20T06:18:28;89802.94;;;-144.48;40.99
4123;BME280;2075;51.062;6.920;2023-08-20T06:21:14;89766.41;;;-144.48;38.94
4123;BME280;2075;51.062;6.920;2023-08-20T06:24:00;89423.53;;;-144.48;37.56
4123;BME280;2075;51.062;6.920;2023-08-20T06:26:45;89046.19;;;-144.48;36.02
4123;BME280;2075;51.062;6.920;2023-08-20T06:29:33;89173.97;;;-144.48;34.95
4123;BME280;2075;51.062;6.920;2023-08-20T06:32:19;88792.63;;;-144.48;34.39
4123;BME280;2075;51.062;6.920;2023-08-20T06:35:05;88384.91;;;-144.48;32.90
4123;BME280;2075;51.062;6.920;2023-08-20T06:37:52;88788.56;;;-144.48;33.74
4123;BME280;2075;51.062;6.920;2023-08-20T06:40:38;88324.06;;;-144.48;32.42
4123;BME280;2075;51.062;6.920;2023-08-20T06:43:24;88551.25;;;-144.48;33.40
4123;BME280;2075;51.062;6.920;2023-08-20T06:46:11;88194.28;;;-144.48;32.07
4123;BME280;2075;51.062;6.920;2023-08-20T06:48:56;87022.22;;;-144.48;30.06
4123;BME280;2075;51.062;6.920;2023-08-20T06:51:42;86811.38;;;-144.48;29.12
4123;BME280;2075;51.062;6.920;2023-08-20T06:54:27;86740.44;;;-144.48;29.20
4123;BME280;2075;51.062;6.920;2023-08-20T06:57:13;86772.88;;;-144.48;29.19
4123;BME280;2075;51.062;6.920;2023-08-20T06:59:59;86849.91;;;-144.48;29.06
4123;BME280;2075;51.062;6.920;2023-08-20T07:02:46;87087.09;;;-144.48;29.64
4123;BME280;2075;51.062;6.920;2023-08-20T07:05:32;86768.81;;;-144.48;28.84
4123;BME280;2075;51.062;6.920;2023-08-20T07:08:18;87042.50;;;-144.48;29.28
4123;BME280;2075;51.062;6.920;2023-08-20T07:13:45;87652.81;;;-144.48;30.23
4123;BME280;2075;51.062;6.920;2023-08-20T07:16:31;87577.78;;;-144.48;29.96
4123;BME280;2075;51.062;6.920;2023-08-20T07:19:18;87492.63;;;-144.48;29.26
4123;BME280;2075;51.062;6.920;2023-08-20T07:24:45;87683.22;;;-144.48;30.00
4123;BME280;2075;51.062;6.920;2023-08-20T07:27:32;87389.22;;;-144.48;29.51
4123;BME280;2075;51.062;6.920;2023-08-20T07:30:21;86858.00;;;-144.48;29.12
4123;BME280;2075;51.062;6.920;2023-08-20T07:33:10;87863.72;;;-144.48;30.63
4123;BME280;2075;51.062;6.920;2023-08-20T07:36:00;88068.53;;;-144.48;31.23
4123;BME280;2075;51.062;6.920;2023-08-20T07:41:32;87117.53;;;-144.48;29.05
4123;BME280;2075;51.062;6.920;2023-08-20T07:44:23;86549.88;;;-144.48;28.39
4123;BME280;2075;51.062;6.920;2023-08-20T07:47:12;86513.38;;;-144.48;28.15
4123;BME280;2075;51.062;6.920;2023-08-20T07:49:58;86166.78;;;-144.48;27.92
4123;BME280;2075;51.062;6.920;2023-08-20T07:52:46;86260.00;;;-144.48;27.97
4123;BME280;2075;51.062;6.920;2023-08-20T07:55:32;86519.47;;;-144.48;27.85
4123;BME280;2075;51.062;6.920;2023-08-20T07:58:17;87014.13;;;-144.48;28.52
4123;BME280;2075;51.062;6.920;2023-08-20T08:01:05;85895.19;;;-144.48;27.14
4123;BME280;2075;51.062;6.920;2023-08-20T08:03:50;85617.53;;;-144.48;27.18
4123;BME280;2075;51.062;6.920;2023-08-20T08:09:45;85753.31;;;-144.48;27.22
4123;BME280;2075;51.062;6.920;2023-08-20T08:12:31;85840.44;;;-144.48;27.26
4123;BME280;2075;51.062;6.920;2023-08-20T08:15:16;85848.56;;;-144.48;27.13
4123;BME280;2075;51.062;6.920;2023-08-20T08:18:02;85982.31;;;-144.48;27.16
4123;BME280;2075;51.062;6.920;2023-08-20T08:20:49;86211.38;;;-144.48;27.52
4123;BME280;2075;51.062;6.920;2023-08-20T08:23:34;86059.34;;;-144.48;27.84
4123;BME280;2075;51.062;6.920;2023-08-20T08:26:21;85824.25;;;-144.48;27.05
4123;BME280;2075;51.062;6.920;2023-08-20T08:29:07;86949.25;;;-144.48;28.48
4123;BME280;2075;51.062;6.920;2023-08-20T08:31:52;87265.53;;;-144.48;28.71
4123;BME280;2075;51.062;6.920;2023-08-20T08:34:38;86669.47;;;-144.48;28.20
4123;BME280;2075;51.062;6.920;2023-08-20T08:37:23;86651.25;;;-144.48;27.90
4123;BME280;2075;51.062;6.920;2023-08-20T08:40:09;86683.66;;;-144.48;27.87
4123;BME280;2075;51.062;6.920;2023-08-20T08:42:58;86894.50;;;-144.48;28.10
4123;BME280;2075;51.062;6.920;2023-08-20T08:45:46;86166.78;;;-144.48;27.64
4123;BME280;2075;51.062;6.920;2023-08-20T08:48:33;88220.63;;;-144.48;30.65
4123;BME280;2075;51.062;6.920;2023-08-20T08:51:19;87239.16;;;-144.48;28.70
4123;BME280;2075;51.062;6.920;2023-08-20T08:54:05;86493.13;;;-144.48;27.35
4123;BME280;2075;51.062;6.920;2023-08-20T08:56:51;86525.56;;;-144.48;27.13
4123;BME280;2075;51.062;6.920;2023-08-20T08:59:38;87758.25;;;-144.48;28.63
4123;BME280;2075;51.062;6.920;2023-08-20T09:02:24;89699.44;;;-144.48;34.57
4123;BME280;2075;51.062;6.920;2023-08-20T09:05:13;90352.84;;;-144.48;39.00
4123;BME280;2075;51.062;6.920;2023-08-20T09:07:59;90687.69;;;-144.48;42.78
4123;BME280;2075;51.062;6.920;2023-08-20T09:10:44;90967.78;;;-144.48;45.79
4123;BME280;2075;51.062;6.920;2023-08-20T09:13:34;91099.72;;;-144.48;48.51
4123;BME280;2075;51.062;6.920;2023-08-20T09:16:29;91040.88;;;-144.48;49.25
4123;BME280;2075;51.062;6.920;2023-08-20T09:19:15;91042.91;;;-144.48;48.32
4123;BME280;2075;51.062;6.920;2023-08-20T09:22:01;91075.38;;;-144.48;50.42
4123;BME280;2075;51.062;6.920;2023-08-20T09:24:51;91032.75;;;-144.48;48.19
4123;BME280;2075;51.062;6.920;2023-08-20T09:27:39;91140.31;;;-144.48;49.50
4123;BME280;2075;51.062;6.920;2023-08-20T09:30:25;91024.63;;;-144.48;49.84
4123;BME280;2075;51.062;6.920;2023-08-20T09:33:12;90906.91;;;-144.48;49.87
4123;BME280;2075;51.062;6.920;2023-08-20T09:35:58;90994.19;;;-144.48;49.85
4123;BME280;2075;51.062;6.920;2023-08-20T09:38:44;90977.94;;;-144.48;50.47
4123;BME280;2075;51.062;6.920;2023-08-20T09:41:29;90925.16;;;-144.48;49.16
4123;BME280;2075;51.062;6.920;2023-08-20T09:44:16;90975.91;;;-144.48;49.08
4123;BME280;2075;51.062;6.920;2023-08-20T09:47:05;90957.66;;;-144.48;49.34
4123;BME280;2075;51.062;6.920;2023-08-20T09:49:53;90935.31;;;-144.48;48.46
4123;BME280;2075;51.062;6.920;2023-08-20T09:52:47;90947.50;;;-144.48;48.05
4123;BME280;2075;51.062;6.920;2023-08-20T09:55:35;90892.69;;;-144.48;48.38
4123;BME280;2075;51.062;6.920;2023-08-20T09:58:21;90935.31;;;-144.48;48.85
4123;BME280;2075;51.062;6.920;2023-08-20T10:01:09;90931.25;;;-144.48;47.00
4123;BME280;2075;51.062;6.920;2023-08-20T10:03:56;90870.38;;;-144.48;47.35
4123;BME280;2075;51.062;6.920;2023-08-20T10:06:43;90846.00;;;-144.48;47.81
4123;BME280;2075;51.062;6.920;2023-08-20T10:09:29;90815.56;;;-144.48;45.86
4123;BME280;2075;51.062;6.920;2023-08-20T10:12:14;90801.34;;;-144.48;43.61
4123;BME280;2075;51.062;6.920;2023-08-20T10:15:00;90673.50;;;-144.48;43.05
4123;BME280;2075;51.062;6.920;2023-08-20T10:17:46;90756.72;;;-144.48;44.64
4123;BME280;2075;51.062;6.920;2023-08-20T10:20:32;90789.19;;;-144.48;45.95
4123;BME280;2075;51.062;6.920;2023-08-20T10:23:21;90841.94;;;-144.48;45.33
4123;BME280;2075;51.062;6.920;2023-08-20T10:26:09;90892.69;;;-144.48;47.06
4123;BME280;2075;51.062;6.920;2023-08-20T10:32:13;90841.94;;;-144.48;47.25
4123;BME280;2075;51.062;6.920;2023-08-20T10:34:59;90825.72;;;-144.48;45.92
4123;BME280;2075;51.062;6.920;2023-08-20T10:38:06;90651.16;;;-144.48;44.72
4123;BME280;2075;51.062;6.920;2023-08-20T10:40:55;90655.22;;;-144.48;44.84
4123;BME280;2075;51.062;6.920;2023-08-20T10:43:46;90671.47;;;-144.48;44.19
4123;BME280;2075;51.062;6.920;2023-08-20T10:46:32;90724.25;;;-144.48;44.89
4123;BME280;2075;51.062;6.920;2023-08-20T10:49:20;90693.78;;;-144.48;45.59
4123;BME280;2075;51.062;6.920;2023-08-20T10:52:06;90774.97;;;-144.48;45.13
4123;BME280;2075;51.062;6.920;2023-08-20T10:54:52;90728.28;;;-144.48;45.29
4123;BME280;2075;51.062;6.920;2023-08-20T10:57:40;90699.88;;;-144.48;45.51
4123;BME280;2075;51.062;6.920;2023-08-20T11:00:26;90732.34;;;-144.48;44.78
4123;BME280;2075;51.062;6.920;2023-08-20T11:03:14;90750.63;;;-144.48;44.56
4123;BME280;2075;51.062;6.920;2023-08-20T11:05:59;90783.09;;;-144.48;44.27
4123;BME280;2075;51.062;6.920;2023-08-20T11:08:47;91032.75;;;-144.48;44.82
4123;BME280;2075;51.062;6.920;2023-08-20T11:11:33;90813.53;;;-144.48;45.69
4123;BME280;2075;51.062;6.920;2023-08-20T11:14:21;90931.25;;;-144.48;45.56
4123;BME280;2075;51.062;6.920;2023-08-20T11:17:07;90949.53;;;-144.48;45.66
4123;BME280;2075;51.062;6.920;2023-08-20T11:19:53;90882.53;;;-144.48;45.11
4123;BME280;2075;51.062;6.920;2023-08-20T11:22:39;90927.19;;;-144.48;44.77
4123;BME280;2075;51.062;6.920;2023-08-20T11:25:25;90975.91;;;-144.48;44.69
4123;BME280;2075;51.062;6.920;2023-08-20T11:28:10;90908.94;;;-144.48;44.30
4123;BME280;2075;51.062;6.920;2023-08-20T11:30:58;90797.31;;;-144.48;44.17
4123;BME280;2075;51.062;6.920;2023-08-20T11:33:43;90687.69;;;-144.48;43.58
4123;BME280;2075;51.062;6.920;2023-08-20T11:36:29;90598.41;;;-144.48;42.68
4123;BME280;2075;51.062;6.920;2023-08-20T11:39:15;90578.09;;;-144.48;43.26
4123;BME280;2075;51.062;6.920;2023-08-20T11:42:01;90689.72;;;-144.48;43.61
4123;BME280;2075;51.062;6.920;2023-08-20T11:44:47;90996.22;;;-144.48;43.54
4123;BME280;2075;51.062;6.920;2023-08-20T11:47:40;90673.50;;;-144.48;43.28
4123;BME280;2075;51.062;6.920;2023-08-20T11:50:26;90677.56;;;-144.48;43.03
4123;BME280;2075;51.062;6.920;2023-08-20T11:53:11;90882.53;;;-144.48;44.06
4123;BME280;2075;51.062;6.920;2023-08-20T11:55:57;90902.84;;;-144.48;44.35
4123;BME280;2075;51.062;6.920;2023-08-20T11:58:42;90843.97;;;-144.48;44.53
4123;BME280;2075;51.062;6.920;2023-08-20T12:01:30;90835.88;;;-144.48;43.93
4123;BME280;2075;51.062;6.920;2023-08-20T12:04:17;90825.72;;;-144.48;43.66
4123;BME280;2075;51.062;6.920;2023-08-20T12:07:03;90777.00;;;-144.48;44.40
4123;BME280;2075;51.062;6.920;2023-08-20T12:09:49;90793.25;;;-144.48;43.77
4123;BME280;2075;51.062;6.920;2023-08-20T12:12:35;90890.66;;;-144.48;43.98
4123;BME280;2075;51.062;6.920;2023-08-20T12:15:20;90829.78;;;-144.48;45.02
4123;BME280;2075;51.062;6.920;2023-08-20T12:18:06;90876.47;;;-144.48;44.54
4123;BME280;2075;51.062;6.920;2023-08-20T12:20:54;90927.19;;;-144.48;44.88
4123;BME280;2075;51.062;6.920;2023-08-20T12:23:40;90939.38;;;-144.48;45.46
4123;BME280;2075;51.062;6.920;2023-08-20T12:26:25;90988.09;;;-144.48;46.00
4123;BME280;2075;51.062;6.920;2023-08-20T12:29:12;90890.66;;;-144.48;45.44
4123;BME280;2075;51.062;6.920;2023-08-20T12:31:57;90935.31;;;-144.48;44.72
4123;BME280;2075;51.062;6.920;2023-08-20T12:34:45;91156.56;;;-144.48;45.23
4123;BME280;2075;51.062;6.920;2023-08-20T12:37:32;91124.09;;;-144.48;46.05
4123;BME280;2075;51.062;6.920;2023-08-20T12:40:18;91138.28;;;-144.48;46.61
4123;BME280;2075;51.062;6.920;2023-08-20T12:43:03;91085.53;;;-144.48;45.81
4123;BME280;2075;51.062;6.920;2023-08-20T12:45:49;91091.59;;;-144.48;45.43
4123;BME280;2075;51.062;6.920;2023-08-20T12:48:35;91097.69;;;-144.48;45.12
4123;BME280;2075;51.062;6.920;2023-08-20T12:51:21;91006.34;;;-144.48;44.99
4123;BME280;2075;51.062;6.920;2023-08-20T12:54:11;90937.34;;;-144.48;44.50
4123;BME280;2075;51.062;6.920;2023-08-20T12:57:01;91187.00;;;-144.48;45.52
4123;BME280;2075;51.062;6.920;2023-08-20T12:59:47;90982.00;;;-144.48;44.90
4123;BME280;2075;51.062;6.920;2023-08-20T13:02:33;90967.78;;;-144.48;44.13
4123;BME280;2075;51.062;6.920;2023-08-20T13:05:19;91146.41;;;-144.48;46.31
4123;BME280;2075;51.062;6.920;2023-08-20T13:08:06;91178.91;;;-144.48;45.84
4123;BME280;2075;51.062;6.920;2023-08-20T13:10:55;91178.91;;;-144.48;45.75
4123;BME280;2075;51.062;6.920;2023-08-20T13:13:41;91215.44;;;-144.48;46.39
4123;BME280;2075;51.062;6.920;2023-08-20T13:16:27;91280.38;;;-144.48;46.55
4123;BME280;2075;51.062;6.920;2023-08-20T13:19:13;91292.56;;;-144.48;45.58
4123;BME280;2075;51.062;6.920;2023-08-20T13:21:59;91235.72;;;-144.48;44.80
4123;BME280;2075;51.062;6.920;2023-08-20T13:24:45;91278.34;;;-144.48;46.03
4123;BME280;2075;51.062;6.920;2023-08-20T13:27:32;91256.03;;;-144.48;46.11
4123;BME280;2075;51.062;6.920;2023-08-20T13:30:18;91298.66;;;-144.48;46.16
4123;BME280;2075;51.062;6.920;2023-08-20T13:33:04;91302.72;;;-144.48;48.38
4123;BME280;2075;51.062;6.920;2023-08-20T13:35:50;91189.03;;;-144.48;47.80
4123;BME280;2075;51.062;6.920;2023-08-20T13:38:36;91166.72;;;-144.48;47.47
4123;BME280;2075;51.062;6.920;2023-08-20T13:41:22;91146.41;;;-144.48;45.38
4123;BME280;2075;51.062;6.920;2023-08-20T13:44:09;91042.91;;;-144.48;44.52
4123;BME280;2075;51.062;6.920;2023-08-20T13:46:55;91044.94;;;-144.48;43.50
4123;BME280;2075;51.062;6.920;2023-08-20T13:49:40;90961.69;;;-144.48;43.13
4123;BME280;2075;51.062;6.920;2023-08-20T13:52:26;90925.16;;;-144.48;43.09
4123;BME280;2075;51.062;6.920;2023-08-20T13:55:12;91012.44;;;-144.48;43.04
4123;BME280;2075;51.062;6.920;2023-08-20T13:57:57;91061.16;;;-144.48;43.75
4123;BME280;2075;51.062;6.920;2023-08-20T14:00:45;91217.47;;;-144.48;44.62
4123;BME280;2075;51.062;6.920;2023-08-20T14:03:31;91176.84;;;-144.48;45.11
4123;BME280;2075;51.062;6.920;2023-08-20T14:06:19;91207.31;;;-144.48;47.45
4123;BME280;2075;51.062;6.920;2023-08-20T14:09:06;91426.53;;;-144.48;46.69
4123;BME280;2075;51.062;6.920;2023-08-20T14:11:52;90971.84;;;-144.48;47.09
4123;BME280;2075;51.062;6.920;2023-08-20T14:14:37;91227.59;;;-144.48;47.80
4123;BME280;2075;51.062;6.920;2023-08-20T14:17:24;91152.50;;;-144.48;45.90
4123;BME280;2075;51.062;6.920;2023-08-20T14:20:11;91122.06;;;-144.48;45.29
4123;BME280;2075;51.062;6.920;2023-08-20T14:22:58;91182.94;;;-144.48;45.58
4123;BME280;2075;51.062;6.920;2023-08-20T14:25:53;91051.00;;;-144.48;45.58
4123;BME280;2075;51.062;6.920;2023-08-20T14:28:37;91014.47;;;-144.48;45.85
4123;BME280;2075;51.062;6.920;2023-08-20T14:31:24;91142.34;;;-144.48;44.49
4123;BME280;2075;51.062;6.920;2023-08-20T14:34:11;91203.25;;;-144.48;46.76
4123;BME280;2075;51.062;6.920;2023-08-20T14:36:57;91164.69;;;-144.48;45.85
4123;BME280;2075;51.062;6.920;2023-08-20T14:39:42;91197.16;;;-144.48;44.87
4123;BME280;2075;51.062;6.920;2023-08-20T14:42:30;91152.50;;;-144.48;45.62
4123;BME280;2075;51.062;6.920;2023-08-20T14:45:15;91168.75;;;-144.48;46.64
4123;BME280;2075;51.062;6.920;2023-08-20T14:48:01;91298.66;;;-144.48;48.39
4123;BME280;2075;51.062;6.920;2023-08-20T14:50:49;91304.75;;;-144.48;48.02